Time;durP1;ratioP1;P1;durP2;ratioP2;P2;SDS_P1;SDS_P2;PMS_P1;PMS_P2;Temp;Humidity;BMP_temperature;BMP_pressure;BME280_temperature;BME280_humidity;BME280_pressure;Samples;Min_cycle;Max_cycle;Signal;HPM_P1;HPM_P2
2020/12/16 00:01:57;;;;;;;26.63;19.40;;;6.80;99.90;;;;;;5053636;28;20506;-67
2020/12/16 00:04:23;;;;;;;27.30;20.67;;;6.80;99.90;;;;;;5053704;28;20521;-67
2020/12/16 00:06:50;;;;;;;33.30;23.20;;;6.80;99.90;;;;;;5053307;28;20787;-67
2020/12/16 00:09:17;;;;;;;31.20;22.87;;;6.80;99.90;;;;;;5053668;28;20798;-67
2020/12/16 00:11:43;;;;;;;20.37;18.17;;;6.80;99.90;;;;;;5053245;28;20510;-67
2020/12/16 00:14:09;;;;;;;25.90;21.43;;;6.80;99.90;;;;;;5052683;28;20475;-67
2020/12/16 00:16:35;;;;;;;26.50;20.27;;;6.80;99.90;;;;;;5053596;28;20478;-67
2020/12/16 00:19:02;;;;;;;35.73;24.67;;;6.80;99.90;;;;;;5053585;28;20451;-67
2020/12/16 00:21:28;;;;;;;31.20;23.57;;;6.80;99.90;;;;;;5052951;28;20446;-67
2020/12/16 00:23:54;;;;;;;29.20;23.50;;;6.90;99.90;;;;;;5053072;28;20483;-67
2020/12/16 00:26:21;;;;;;;36.63;23.17;;;7.00;99.90;;;;;;5053281;28;20470;-68
2020/12/16 00:28:48;;;;;;;28.80;21.97;;;7.00;99.90;;;;;;5053253;28;20451;-68
2020/12/16 00:31:14;;;;;;;31.53;25.93;;;7.10;99.90;;;;;;5052924;28;20490;-67
2020/12/16 00:33:41;;;;;;;33.50;23.37;;;7.20;99.90;;;;;;5052959;28;20517;-67
2020/12/16 00:36:07;;;;;;;29.90;24.87;;;7.30;99.90;;;;;;5052889;28;20455;-67
2020/12/16 00:38:34;;;;;;;24.07;21.17;;;7.40;99.90;;;;;;5053143;28;20451;-67
2020/12/16 00:41:00;;;;;;;30.43;23.53;;;7.40;99.90;;;;;;5052644;28;20441;-67
2020/12/16 00:43:27;;;;;;;25.23;19.70;;;7.50;99.90;;;;;;5052689;28;20484;-67
2020/12/16 00:45:53;;;;;;;30.33;24.90;;;7.50;99.90;;;;;;5052864;28;20459;-67
2020/12/16 00:48:20;;;;;;;27.90;20.40;;;7.60;99.90;;;;;;5053021;28;20440;-68
2020/12/16 00:50:46;;;;;;;29.70;22.00;;;7.60;99.90;;;;;;5052708;28;20892;-67
2020/12/16 00:53:12;;;;;;;26.33;20.80;;;7.70;99.90;;;;;;5052606;28;21154;-67
2020/12/16 00:55:39;;;;;;;25.20;20.13;;;7.70;99.90;;;;;;5052706;28;21058;-67
2020/12/16 00:58:05;;;;;;;26.10;21.17;;;7.70;99.90;;;;;;5052627;28;20448;-68
2020/12/16 01:00:32;;;;;;;23.30;20.80;;;7.80;99.90;;;;;;5052461;28;20444;-68
2020/12/16 01:02:58;;;;;;;24.80;19.20;;;7.80;99.90;;;;;;5052494;28;20868;-67
2020/12/16 01:05:24;;;;;;;25.63;19.27;;;7.80;99.90;;;;;;5052415;28;20448;-68
2020/12/16 01:07:51;;;;;;;22.87;20.10;;;7.90;99.90;;;;;;5052548;28;20440;-67
2020/12/16 01:10:18;;;;;;;24.10;19.10;;;7.90;99.90;;;;;;5052519;28;20444;-67
2020/12/16 01:12:46;;;;;;;22.87;18.63;;;8.00;99.90;;;;;;5052243;28;20472;-68
2020/12/16 01:15:16;;;;;;;23.70;19.37;;;8.00;99.90;;;;;;5052262;28;20448;-67
2020/12/16 01:17:44;;;;;;;24.33;18.90;;;8.00;99.90;;;;;;5052456;28;20448;-67
2020/12/16 01:20:11;;;;;;;25.53;19.33;;;8.00;99.90;;;;;;5052043;28;20444;-66
2020/12/16 01:22:39;;;;;;;26.17;19.10;;;8.10;99.90;;;;;;5052118;28;20555;-67
2020/12/16 01:25:05;;;;;;;21.20;17.43;;;8.10;99.90;;;;;;5051882;28;20449;-68
2020/12/16 01:27:31;;;;;;;25.90;21.40;;;8.20;99.90;;;;;;5052143;28;20501;-67
2020/12/16 01:29:58;;;;;;;23.37;18.57;;;8.20;99.90;;;;;;5052024;28;20448;-68
2020/12/16 01:32:24;;;;;;;25.23;19.00;;;8.20;99.90;;;;;;5052204;28;20544;-67
2020/12/16 01:34:51;;;;;;;22.80;18.77;;;8.20;99.90;;;;;;5052080;28;20521;-67
2020/12/16 01:37:17;;;;;;;20.77;17.50;;;8.20;99.90;;;;;;5052368;28;20444;-67
2020/12/16 01:39:43;;;;;;;22.23;17.90;;;8.30;99.90;;;;;;5052785;28;20451;-67
2020/12/16 01:42:10;;;;;;;22.23;18.60;;;8.30;99.90;;;;;;5053948;28;20539;-67
2020/12/16 01:44:36;;;;;;;23.50;18.90;;;8.40;99.90;;;;;;5054434;28;20451;-67
2020/12/16 01:47:03;;;;;;;20.23;18.10;;;8.40;99.90;;;;;;5052174;28;20451;-67
2020/12/16 01:49:29;;;;;;;23.43;17.57;;;8.40;99.90;;;;;;5051689;28;20449;-67
2020/12/16 01:51:58;;;;;;;20.70;17.33;;;8.50;99.90;;;;;;5051467;28;20538;-67
2020/12/16 01:54:25;;;;;;;22.93;18.40;;;8.50;99.90;;;;;;5051747;28;20444;-67
2020/12/16 01:56:54;;;;;;;23.03;17.90;;;8.50;99.90;;;;;;5051666;28;20562;-68
2020/12/16 01:59:21;;;;;;;23.87;17.13;;;8.50;99.90;;;;;;5051999;28;20800;-68
2020/12/16 02:01:51;;;;;;;20.90;17.27;;;8.50;99.90;;;;;;5051488;28;20440;-68
2020/12/16 02:04:22;;;;;;;23.23;17.73;;;8.50;99.90;;;;;;5051613;28;20475;-68
2020/12/16 02:06:50;;;;;;;22.17;17.80;;;8.50;99.90;;;;;;5051789;28;20493;-67
2020/12/16 02:09:20;;;;;;;24.87;18.03;;;8.50;99.90;;;;;;5051723;28;20447;-67
2020/12/16 02:11:47;;;;;;;21.80;17.37;;;8.50;99.90;;;;;;5051557;28;20515;-67
2020/12/16 02:14:13;;;;;;;24.63;18.03;;;8.50;99.90;;;;;;5052009;28;20522;-67
2020/12/16 02:16:41;;;;;;;22.37;15.93;;;8.50;99.90;;;;;;5052000;28;20506;-67
2020/12/16 02:19:09;;;;;;;20.17;17.60;;;8.50;99.90;;;;;;5052002;28;20448;-67
2020/12/16 02:21:36;;;;;;;17.03;15.13;;;8.50;99.90;;;;;;5052206;28;20432;-67
2020/12/16 02:24:04;;;;;;;18.10;15.37;;;8.50;99.90;;;;;;5051729;28;20479;-67
2020/12/16 02:26:32;;;;;;;18.27;15.80;;;8.60;99.90;;;;;;5051513;28;20802;-67
2020/12/16 02:28:59;;;;;;;17.13;13.83;;;8.60;99.90;;;;;;5051586;28;20440;-67
2020/12/16 02:31:28;;;;;;;18.73;14.73;;;8.50;99.90;;;;;;5051731;28;20476;-67
2020/12/16 02:33:54;;;;;;;21.73;16.17;;;8.40;99.90;;;;;;5051837;28;20534;-67
2020/12/16 02:36:20;;;;;;;17.33;14.37;;;8.30;99.90;;;;;;5053397;28;20450;-67
2020/12/16 02:38:47;;;;;;;19.37;16.10;;;8.20;99.90;;;;;;5055717;28;20933;-67
2020/12/16 02:41:14;;;;;;;17.10;15.30;;;8.10;99.90;;;;;;5054893;28;20440;-67
2020/12/16 02:43:41;;;;;;;22.50;15.80;;;8.00;99.90;;;;;;5055135;28;20463;-67
2020/12/16 02:46:07;;;;;;;18.30;15.03;;;7.90;99.90;;;;;;5055367;28;20448;-67
2020/12/16 02:48:33;;;;;;;20.30;16.50;;;7.90;99.90;;;;;;5055385;28;20444;-67
2020/12/16 02:50:59;;;;;;;20.97;16.37;;;7.80;99.90;;;;;;5055313;28;20491;-67
2020/12/16 02:53:26;;;;;;;20.03;15.83;;;7.70;99.90;;;;;;5055440;28;20467;-67
2020/12/16 02:55:52;;;;;;;20.57;15.33;;;7.70;99.90;;;;;;5055458;28;20440;-67
2020/12/16 02:58:18;;;;;;;22.13;16.30;;;7.60;99.90;;;;;;5055400;28;20440;-67
2020/12/16 03:00:45;;;;;;;20.50;15.80;;;7.50;99.90;;;;;;5054586;28;20448;-68
2020/12/16 03:03:11;;;;;;;20.03;16.93;;;7.50;99.90;;;;;;5054604;28;20996;-67
2020/12/16 03:05:38;;;;;;;18.20;14.93;;;7.40;99.90;;;;;;5054736;28;20444;-67
2020/12/16 03:08:07;;;;;;;23.17;15.77;;;7.40;99.90;;;;;;5054481;28;20941;-67
2020/12/16 03:10:34;;;;;;;26.20;17.13;;;7.40;99.90;;;;;;5054315;28;20475;-67
2020/12/16 03:13:00;;;;;;;24.57;17.47;;;7.30;99.90;;;;;;5054581;28;21166;-66
2020/12/16 03:15:27;;;;;;;25.53;18.70;;;7.30;99.90;;;;;;5054511;28;20440;-67
2020/12/16 03:17:54;;;;;;;24.83;17.57;;;7.30;99.90;;;;;;5054497;28;20443;-67
2020/12/16 03:20:20;;;;;;;23.90;20.07;;;7.30;99.90;;;;;;5054352;28;20448;-67
2020/12/16 03:22:46;;;;;;;28.70;21.07;;;7.30;99.90;;;;;;5054020;28;20484;-67
2020/12/16 03:25:13;;;;;;;27.17;19.77;;;7.20;99.90;;;;;;5054224;28;20456;-67
2020/12/16 03:27:39;;;;;;;26.30;18.87;;;7.20;99.90;;;;;;5054395;28;20440;-67
2020/12/16 03:30:06;;;;;;;24.73;20.17;;;7.20;99.90;;;;;;5053886;28;20448;-67
2020/12/16 03:32:32;;;;;;;26.57;20.03;;;7.10;99.90;;;;;;5054270;28;20488;-67
2020/12/16 03:35:00;;;;;;;28.90;20.07;;;7.10;99.90;;;;;;5054116;28;20455;-67
2020/12/16 03:37:26;;;;;;;28.53;20.97;;;7.10;99.90;;;;;;5053951;28;20470;-67
2020/12/16 03:39:53;;;;;;;29.20;21.13;;;7.10;99.90;;;;;;5053884;28;20445;-67
2020/12/16 03:42:19;;;;;;;29.67;21.10;;;7.10;99.90;;;;;;5053980;28;20460;-66
2020/12/16 03:44:45;;;;;;;31.17;22.17;;;7.10;99.90;;;;;;5053754;28;20444;-67
2020/12/16 03:47:11;;;;;;;30.77;21.80;;;7.10;99.90;;;;;;5053654;28;20799;-67
2020/12/16 03:49:38;;;;;;;31.37;22.50;;;7.00;99.90;;;;;;5053672;28;20444;-67
2020/12/16 03:52:05;;;;;;;28.50;22.27;;;7.00;99.90;;;;;;5053500;28;20476;-67
2020/12/16 03:54:31;;;;;;;27.67;21.27;;;7.00;99.90;;;;;;5053748;28;20448;-68
2020/12/16 03:56:57;;;;;;;32.40;20.87;;;7.00;99.90;;;;;;5053784;28;20451;-67
2020/12/16 03:59:23;;;;;;;29.83;20.50;;;7.00;99.90;;;;;;5053573;28;20455;-67
2020/12/16 04:01:51;;;;;;;29.70;19.33;;;7.00;99.90;;;;;;5053479;28;20443;-67
2020/12/16 04:04:18;;;;;;;31.90;23.33;;;7.00;99.90;;;;;;5053548;28;20472;-67
2020/12/16 04:06:44;;;;;;;32.53;22.53;;;7.10;99.90;;;;;;5053568;28;20463;-67
2020/12/16 04:09:12;;;;;;;27.70;18.43;;;7.10;99.90;;;;;;5053524;28;20440;-66
2020/12/16 04:11:39;;;;;;;27.50;19.73;;;7.10;99.90;;;;;;5053189;28;20483;-67
2020/12/16 04:14:05;;;;;;;26.87;20.10;;;7.10;99.90;;;;;;5053440;28;20534;-66
2020/12/16 04:16:32;;;;;;;33.10;23.37;;;7.10;99.90;;;;;;5053314;28;20482;-66
2020/12/16 04:18:58;;;;;;;33.53;21.80;;;7.10;99.90;;;;;;5053228;28;20451;-66
2020/12/16 04:21:24;;;;;;;30.87;22.80;;;7.10;99.90;;;;;;5052894;28;20486;-66
2020/12/16 04:23:50;;;;;;;34.10;21.80;;;7.20;99.90;;;;;;5052854;28;20476;-67
2020/12/16 04:26:18;;;;;;;33.97;21.93;;;7.20;99.90;;;;;;5052984;28;20458;-67
2020/12/16 04:28:44;;;;;;;33.37;24.00;;;7.20;99.90;;;;;;5053177;28;20762;-67
2020/12/16 04:31:11;;;;;;;29.50;22.37;;;7.20;99.90;;;;;;5052707;28;20994;-67
2020/12/16 04:33:38;;;;;;;27.77;19.93;;;7.30;99.90;;;;;;5053040;28;20475;-66
2020/12/16 04:36:04;;;;;;;28.13;20.17;;;7.30;99.90;;;;;;5053036;28;20777;-67
2020/12/16 04:38:31;;;;;;;26.83;19.07;;;7.20;99.90;;;;;;5053023;28;20448;-66
2020/12/16 04:40:57;;;;;;;23.90;15.97;;;7.10;99.90;;;;;;5052803;28;20436;-66
2020/12/16 04:43:24;;;;;;;23.40;17.33;;;7.00;99.90;;;;;;5052744;28;20464;-67
2020/12/16 04:45:52;;;;;;;26.90;17.37;;;7.00;99.90;;;;;;5052683;28;20443;-66
2020/12/16 04:48:19;;;;;;;27.27;18.63;;;7.00;99.90;;;;;;5052984;28;20440;-67
2020/12/16 04:50:46;;;;;;;27.87;18.27;;;6.90;99.90;;;;;;5052350;28;20448;-67
2020/12/16 04:53:14;;;;;;;24.30;16.87;;;6.80;99.90;;;;;;5052374;28;20464;-67
2020/12/16 04:55:41;;;;;;;24.10;17.70;;;6.70;99.90;;;;;;5052611;28;20896;-67
2020/12/16 04:58:09;;;;;;;30.63;19.27;;;6.60;99.90;;;;;;5052422;28;20444;-67
2020/12/16 05:00:37;;;;;;;28.07;16.90;;;6.60;99.90;;;;;;5052168;28;20977;-67
2020/12/16 05:03:07;;;;;;;30.13;16.77;;;6.60;99.90;;;;;;5052372;28;20466;-67
2020/12/16 05:05:33;;;;;;;30.00;18.30;;;6.60;99.90;;;;;;5052343;28;20475;-67
2020/12/16 05:08:08;;;;;;;28.90;16.17;;;6.60;99.90;;;;;;5052363;28;20451;-67
2020/12/16 05:10:36;;;;;;;35.97;18.87;;;6.50;99.90;;;;;;5052177;28;20451;-67
2020/12/16 05:13:05;;;;;;;31.50;19.60;;;6.50;99.90;;;;;;5051950;28;20877;-67
2020/12/16 05:15:31;;;;;;;32.57;19.23;;;6.50;99.90;;;;;;5052251;28;20449;-67
2020/12/16 05:18:13;;;;;;;36.07;19.23;;;6.40;99.90;;;;;;5052062;28;20455;-67
2020/12/16 05:20:41;;;;;;;39.03;21.40;;;6.30;99.90;;;;;;5051628;28;20810;-66
2020/12/16 05:23:08;;;;;;;38.40;21.63;;;6.40;99.90;;;;;;5051827;28;21042;-66
2020/12/16 05:25:36;;;;;;;30.60;20.70;;;6.40;99.90;;;;;;5051851;28;20950;-66
2020/12/16 05:28:02;;;;;;;38.27;21.13;;;6.40;99.90;;;;;;5051900;28;20443;-66
2020/12/16 05:30:29;;;;;;;27.00;17.43;;;6.50;99.90;;;;;;5051614;28;20821;-65
2020/12/16 05:32:55;;;;;;;28.27;18.90;;;6.50;99.90;;;;;;5051793;28;20536;-65
2020/12/16 05:35:27;;;;;;;31.63;20.30;;;6.50;99.90;;;;;;5051917;28;20444;-65
2020/12/16 05:38:00;;;;;;;30.40;19.70;;;6.50;99.90;;;;;;5051895;28;20448;-65
2020/12/16 05:40:28;;;;;;;32.27;19.03;;;6.50;99.90;;;;;;5051540;28;20444;-66
2020/12/16 05:42:54;;;;;;;28.20;20.70;;;6.50;99.90;;;;;;5051709;28;20464;-66
2020/12/16 05:45:22;;;;;;;43.07;25.87;;;6.40;99.90;;;;;;5051658;28;20852;-65
2020/12/16 05:48:04;;;;;;;38.63;23.57;;;6.40;99.90;;;;;;5051670;28;20452;-66
2020/12/16 05:50:34;;;;;;;42.33;24.23;;;6.50;99.90;;;;;;5051294;28;20444;-66
2020/12/16 05:53:16;;;;;;;32.90;22.77;;;6.50;99.90;;;;;;5051319;28;21295;-65
2020/12/16 05:55:43;;;;;;;32.53;19.67;;;6.60;99.90;;;;;;5049850;28;20448;-65
2020/12/16 05:58:11;;;;;;;27.83;18.83;;;6.60;99.90;;;;;;5051611;28;20437;-66
2020/12/16 06:00:49;;;;;;;27.30;19.73;;;6.70;99.90;;;;;;5051380;28;20855;-65
2020/12/16 06:03:21;;;;;;;35.87;22.30;;;6.80;99.90;;;;;;5051501;28;20463;-65
2020/12/16 06:05:51;;;;;;;33.67;20.57;;;6.80;99.90;;;;;;5051396;28;20440;-65
2020/12/16 06:08:18;;;;;;;32.43;19.23;;;6.90;99.90;;;;;;5051533;28;20436;-66
2020/12/16 06:10:47;;;;;;;26.37;18.00;;;6.80;99.90;;;;;;5053596;28;20441;-66
2020/12/16 06:13:15;;;;;;;25.97;16.90;;;6.80;99.90;;;;;;5055527;28;20472;-66
2020/12/16 06:15:53;;;;;;;35.07;23.80;;;6.70;99.90;;;;;;5055425;28;20450;-66
2020/12/16 06:18:20;;;;;;;35.87;21.40;;;6.70;99.90;;;;;;5055541;28;20829;-66
2020/12/16 06:20:47;;;;;;;27.93;20.50;;;6.70;99.90;;;;;;5055219;28;20447;-66
2020/12/16 06:23:21;;;;;;;35.87;21.60;;;6.70;99.90;;;;;;5055308;28;20479;-67
2020/12/16 06:25:50;;;;;;;35.10;22.27;;;6.70;99.90;;;;;;5055463;28;20820;-66
2020/12/16 06:28:16;;;;;;;37.27;19.97;;;6.70;99.90;;;;;;5055355;28;20435;-66
2020/12/16 06:30:57;;;;;;;33.90;20.30;;;6.70;99.90;;;;;;5054940;28;20444;-66
2020/12/16 06:33:43;;;;;;;37.07;21.40;;;6.70;99.90;;;;;;5055146;28;20988;-66
2020/12/16 06:36:10;;;;;;;37.63;20.70;;;6.70;99.90;;;;;;5055243;28;20452;-66
2020/12/16 06:38:45;;;;;;;30.83;19.67;;;6.70;99.90;;;;;;5055178;28;20451;-66
2020/12/16 06:41:16;;;;;;;33.63;18.80;;;6.70;99.90;;;;;;5054894;28;20857;-66
2020/12/16 06:43:44;;;;;;;40.30;19.77;;;6.60;99.90;;;;;;5055092;28;20460;-64
2020/12/16 06:46:39;;;;;;;36.30;18.27;;;6.60;99.90;;;;;;5054998;28;20480;-65
2020/12/16 06:49:07;;;;;;;37.57;21.93;;;6.60;99.90;;;;;;5041817;28;20546;-64
2020/12/16 06:51:41;;;;;;;35.50;20.93;;;6.60;99.90;;;;;;5054541;28;20479;-64
2020/12/16 06:54:09;;;;;;;35.50;23.60;;;6.50;99.90;;;;;;5054674;28;20459;-65
2020/12/16 06:56:36;;;;;;;39.37;22.87;;;6.50;99.90;;;;;;5054936;28;20440;-65
2020/12/16 06:59:03;;;;;;;31.07;19.00;;;6.50;99.90;;;;;;5054697;28;20443;-64
2020/12/16 07:01:29;;;;;;;42.53;25.13;;;6.60;99.90;;;;;;5053214;28;20448;-65
2020/12/16 07:03:55;;;;;;;33.40;20.43;;;6.70;99.90;;;;;;5053448;28;20464;-64
2020/12/16 07:06:36;;;;;;;41.00;21.17;;;6.70;99.90;;;;;;5053406;28;20444;-64
2020/12/16 07:09:18;;;;;;;38.50;20.27;;;6.80;99.90;;;;;;5053404;28;20436;-65
2020/12/16 07:11:45;;;;;;;37.37;21.60;;;6.80;99.90;;;;;;5053122;28;20609;-65
2020/12/16 07:14:13;;;;;;;39.33;21.93;;;6.90;99.90;;;;;;5053396;28;20981;-66
2020/12/16 07:16:39;;;;;;;33.20;20.60;;;6.90;99.90;;;;;;5053860;28;20444;-66
2020/12/16 07:19:06;;;;;;;26.57;18.53;;;6.90;99.90;;;;;;5054200;28;20514;-66
2020/12/16 07:21:32;;;;;;;31.20;19.90;;;6.80;99.90;;;;;;5053296;28;20436;-63
2020/12/16 07:24:21;;;;;;;32.27;19.37;;;6.80;99.90;;;;;;5054027;28;20505;-62
2020/12/16 07:26:50;;;;;;;37.40;21.87;;;6.80;99.90;;;;;;5049215;28;20452;-63
2020/12/16 07:29:26;;;;;;;32.03;17.50;;;6.80;99.90;;;;;;5054083;28;20447;-64
2020/12/16 07:32:01;;;;;;;38.50;21.17;;;6.70;99.90;;;;;;5053670;28;20889;-64
2020/12/16 07:34:29;;;;;;;33.03;19.83;;;6.70;99.90;;;;;;5053475;28;20452;-63
2020/12/16 07:36:57;;;;;;;32.70;19.10;;;6.70;99.90;;;;;;5053830;28;20448;-65
2020/12/16 07:39:24;;;;;;;35.03;20.53;;;6.70;99.90;;;;;;5054018;28;20455;-65
2020/12/16 07:41:51;;;;;;;35.50;18.03;;;6.70;99.90;;;;;;5053613;28;20439;-65
2020/12/16 07:44:17;;;;;;;32.10;18.93;;;6.70;99.90;;;;;;5053587;28;20471;-65
2020/12/16 07:46:43;;;;;;;38.70;19.47;;;6.60;99.90;;;;;;5053528;28;20451;-66
2020/12/16 07:49:12;;;;;;;35.43;21.10;;;6.60;99.90;;;;;;5053861;28;20451;-66
2020/12/16 07:51:38;;;;;;;34.77;18.30;;;6.70;99.90;;;;;;5053694;28;20885;-69
2020/12/16 07:54:05;;;;;;;31.10;18.80;;;6.70;99.90;;;;;;5053885;28;21023;-66
2020/12/16 07:56:32;;;;;;;33.60;20.97;;;6.70;99.90;;;;;;5053915;28;20856;-66
2020/12/16 07:59:09;;;;;;;31.30;20.43;;;6.70;99.90;;;;;;5054296;28;20863;-65
2020/12/16 08:01:35;;;;;;;34.40;19.90;;;6.70;99.90;;;;;;5054221;28;20436;-65
2020/12/16 08:04:02;;;;;;;30.87;20.73;;;6.70;99.90;;;;;;5053239;28;20456;-65
2020/12/16 08:06:29;;;;;;;35.27;18.87;;;6.70;99.90;;;;;;5053236;28;20817;-67
2020/12/16 08:08:55;;;;;;;35.30;18.57;;;6.70;99.90;;;;;;5053224;28;20959;-65
2020/12/16 08:11:25;;;;;;;35.03;20.73;;;6.70;99.90;;;;;;5052766;28;20472;-65
2020/12/16 08:14:02;;;;;;;31.83;18.93;;;6.80;99.90;;;;;;5053410;28;20456;-65
2020/12/16 08:16:28;;;;;;;30.80;19.23;;;6.80;99.90;;;;;;5053158;28;20952;-65
2020/12/16 08:18:54;;;;;;;28.73;17.53;;;6.90;99.90;;;;;;5053143;28;20448;-66
2020/12/16 08:21:22;;;;;;;32.47;21.20;;;6.90;99.90;;;;;;5052781;28;20445;-65
2020/12/16 08:23:50;;;;;;;37.97;20.77;;;6.90;99.90;;;;;;5077308;22;20519;-66
2020/12/16 08:26:17;;;;;;;30.93;18.60;;;6.90;99.90;;;;;;5052792;28;20441;-66
2020/12/16 08:28:44;;;;;;;32.70;21.07;;;7.00;99.90;;;;;;5052783;28;20444;-66
2020/12/16 08:31:12;;;;;;;38.13;24.47;;;7.00;99.90;;;;;;5052460;28;20439;-66
2020/12/16 08:33:39;;;;;;;35.67;20.27;;;7.10;99.90;;;;;;5051556;28;20969;-66
2020/12/16 08:36:09;;;;;;;39.17;24.90;;;7.10;99.90;;;;;;5052715;28;20444;-66
2020/12/16 08:38:38;;;;;;;43.50;26.67;;;7.10;99.90;;;;;;5052596;28;20459;-65
2020/12/16 08:41:06;;;;;;;39.67;22.30;;;7.10;99.90;;;;;;5052248;28;20534;-65
2020/12/16 08:43:35;;;;;;;34.70;20.60;;;7.10;99.90;;;;;;5052424;28;21000;-64
2020/12/16 08:46:05;;;;;;;34.10;20.00;;;7.10;99.90;;;;;;5052432;28;20456;-67
2020/12/16 08:48:44;;;;;;;33.07;21.13;;;7.10;99.90;;;;;;5052385;28;20444;-64
2020/12/16 08:51:15;;;;;;;31.90;18.20;;;7.10;99.90;;;;;;5052110;28;20470;-64
2020/12/16 08:53:53;;;;;;;34.60;20.23;;;7.10;99.90;;;;;;5052571;28;20554;-68
2020/12/16 08:56:28;;;;;;;24.70;17.20;;;7.10;99.90;;;;;;5059228;28;20514;-68
2020/12/16 08:59:06;;;;;;;25.63;18.33;;;7.20;99.90;;;;;;5059783;28;20444;-67
2020/12/16 09:01:33;;;;;;;27.90;17.90;;;7.20;99.90;;;;;;5059621;28;20804;-68
2020/12/16 09:04:00;;;;;;;33.80;18.13;;;7.30;99.90;;;;;;5060089;28;20502;-69
2020/12/16 09:06:27;;;;;;;30.50;19.77;;;7.30;99.90;;;;;;5059586;28;20505;-66
2020/12/16 09:08:53;;;;;;;31.70;18.13;;;7.40;99.90;;;;;;5059521;28;20819;-68
2020/12/16 09:11:20;;;;;;;35.30;19.23;;;7.40;99.90;;;;;;5059295;28;20444;-68
2020/12/16 09:13:47;;;;;;;35.03;19.60;;;7.50;99.90;;;;;;5059468;28;20551;-69
2020/12/16 09:16:20;;;;;;;29.97;18.17;;;7.60;99.90;;;;;;5058910;28;20444;-68
2020/12/16 09:18:47;;;;;;;26.67;17.13;;;7.70;99.90;;;;;;5059078;28;20444;-65
2020/12/16 09:21:17;;;;;;;30.20;18.57;;;7.80;99.90;;;;;;5059378;28;20444;-68
2020/12/16 09:23:43;;;;;;;25.30;15.90;;;7.90;99.90;;;;;;5058884;28;20471;-65
2020/12/16 09:26:10;;;;;;;30.53;17.10;;;8.10;99.90;;;;;;5059407;28;20487;-65
2020/12/16 09:28:38;;;;;;;30.20;19.03;;;8.30;99.90;;;;;;5059007;28;20521;-66
2020/12/16 09:31:15;;;;;;;27.80;17.67;;;8.40;99.90;;;;;;5057704;28;20451;-66
2020/12/16 09:33:42;;;;;;;26.60;17.50;;;8.60;99.90;;;;;;5058381;28;20460;-66
2020/12/16 09:36:09;;;;;;;23.73;15.20;;;8.70;99.90;;;;;;5058278;28;20979;-67
2020/12/16 09:38:36;;;;;;;22.97;16.30;;;8.80;99.90;;;;;;5057443;28;20451;-66
2020/12/16 09:41:02;;;;;;;25.17;15.40;;;8.80;99.90;;;;;;5056644;28;20436;-65
2020/12/16 09:43:39;;;;;;;20.90;15.67;;;8.80;99.90;;;;;;5057030;28;20511;-66
2020/12/16 09:46:16;;;;;;;18.87;15.50;;;8.80;99.90;;;;;;5056621;28;20444;-65
2020/12/16 09:48:43;;;;;;;18.90;15.97;;;8.80;99.90;;;;;;5055848;28;20443;-65
2020/12/16 09:51:17;;;;;;;20.50;15.20;;;8.80;99.90;;;;;;5055848;28;20881;-63
2020/12/16 09:53:44;;;;;;;19.77;14.10;;;8.80;99.90;;;;;;5055176;28;20468;-64
2020/12/16 09:56:22;;;;;;;20.50;16.00;;;8.80;99.90;;;;;;5056254;28;20460;-67
2020/12/16 09:58:49;;;;;;;18.27;14.20;;;8.90;99.90;;;;;;5056460;28;20452;-66
2020/12/16 10:01:15;;;;;;;24.37;16.20;;;9.00;99.90;;;;;;5056432;28;20521;-67
2020/12/16 10:03:41;;;;;;;19.77;15.33;;;9.10;99.90;;;;;;5055750;28;20495;-65
2020/12/16 10:06:12;;;;;;;21.07;15.73;;;9.20;99.90;;;;;;5056507;28;20474;-65
2020/12/16 10:08:38;;;;;;;20.50;15.80;;;9.20;99.90;;;;;;5056753;28;20440;-65
2020/12/16 10:11:05;;;;;;;22.47;16.23;;;9.30;99.90;;;;;;5055786;28;20452;-66
2020/12/16 10:13:31;;;;;;;22.77;16.97;;;9.40;99.90;;;;;;5055048;28;20479;-66
2020/12/16 10:15:58;;;;;;;29.60;17.77;;;9.60;99.90;;;;;;5055105;28;20456;-67
2020/12/16 10:18:24;;;;;;;24.10;18.80;;;9.80;99.90;;;;;;5053668;28;20463;-65
2020/12/16 10:20:50;;;;;;;19.90;16.10;;;10.20;99.90;;;;;;5052582;28;20944;-66
2020/12/16 10:23:16;;;;;;;18.60;16.07;;;10.50;99.90;;;;;;5052479;28;20467;-67
2020/12/16 10:25:42;;;;;;;17.13;14.50;;;10.80;99.90;;;;;;5052546;28;20452;-66
2020/12/16 10:28:10;;;;;;;17.70;15.90;;;11.10;99.90;;;;;;5051923;28;20444;-66
2020/12/16 10:30:37;;;;;;;15.30;13.30;;;11.30;99.90;;;;;;5051297;28;20452;-67
2020/12/16 10:33:03;;;;;;;15.23;13.27;;;11.60;99.90;;;;;;5051277;28;20723;-67
2020/12/16 10:35:29;;;;;;;12.60;11.40;;;12.00;99.90;;;;;;5051065;28;20455;-67
2020/12/16 10:37:56;;;;;;;11.57;10.47;;;12.20;99.90;;;;;;5051008;28;20456;-67
2020/12/16 10:40:22;;;;;;;13.77;12.47;;;12.20;99.90;;;;;;5050958;28;20459;-66
2020/12/16 10:42:48;;;;;;;12.10;10.10;;;12.40;99.90;;;;;;5050840;28;20468;-65
2020/12/16 10:45:15;;;;;;;12.87;11.70;;;12.50;99.90;;;;;;5050959;28;20440;-65
2020/12/16 10:47:42;;;;;;;12.87;11.77;;;12.70;99.90;;;;;;5050979;28;20444;-66
2020/12/16 10:50:09;;;;;;;12.20;11.10;;;12.90;99.90;;;;;;5050920;28;20490;-66
2020/12/16 10:52:35;;;;;;;12.73;11.63;;;12.90;99.90;;;;;;5050663;28;20476;-65
2020/12/16 10:55:01;;;;;;;12.63;11.70;;;13.00;99.90;;;;;;5051377;28;20837;-66
2020/12/16 10:57:28;;;;;;;12.70;11.73;;;13.10;99.90;;;;;;5052864;28;20448;-66
2020/12/16 10:59:54;;;;;;;13.60;12.67;;;13.40;99.90;;;;;;5055237;28;20444;-67
2020/12/16 11:02:21;;;;;;;14.37;13.47;;;13.60;99.90;;;;;;5054588;28;20441;-67
2020/12/16 11:04:48;;;;;;;15.97;14.87;;;13.80;99.90;;;;;;5054832;28;20440;-65
2020/12/16 11:07:14;;;;;;;15.97;14.97;;;14.10;99.90;;;;;;5055004;28;20456;-67
2020/12/16 11:09:40;;;;;;;16.07;15.17;;;14.40;99.90;;;;;;5054604;28;20456;-67
2020/12/16 11:12:07;;;;;;;18.30;17.03;;;14.50;99.90;;;;;;5054923;28;20487;-67
2020/12/16 11:14:34;;;;;;;17.70;16.70;;;14.90;99.90;;;;;;5055121;28;20463;-67
2020/12/16 11:17:00;;;;;;;16.43;15.63;;;14.90;99.90;;;;;;5055109;28;20448;-67
2020/12/16 11:19:26;;;;;;;18.37;17.37;;;15.30;99.90;;;;;;5054551;28;20789;-67
2020/12/16 11:21:53;;;;;;;17.90;16.80;;;15.80;99.90;;;;;;5053836;28;20462;-65
2020/12/16 11:24:21;;;;;;;19.20;18.20;;;15.80;99.90;;;;;;5053934;28;20519;-66
2020/12/16 11:26:49;;;;;;;20.40;19.10;;;16.20;99.90;;;;;;5053957;28;20440;-65
2020/12/16 11:29:18;;;;;;;20.07;19.07;;;16.80;99.90;;;;;;5053908;28;20447;-66
2020/12/16 11:31:46;;;;;;;19.93;18.93;;;17.60;99.90;;;;;;5053348;28;20494;-65
2020/12/16 11:34:13;;;;;;;21.03;19.83;;;18.10;99.70;;;;;;5053239;28;20464;-65
2020/12/16 11:36:41;;;;;;;20.53;19.10;;;18.30;98.90;;;;;;5053153;28;20452;-65
2020/12/16 11:39:09;;;;;;;20.73;19.53;;;18.50;97.30;;;;;;5053106;28;20447;-66
2020/12/16 11:41:36;;;;;;;20.63;19.60;;;18.70;96.70;;;;;;5053014;28;20449;-66
2020/12/16 11:44:04;;;;;;;21.60;20.70;;;18.80;95.20;;;;;;5053365;28;20522;-67
2020/12/16 11:46:31;;;;;;;20.93;20.03;;;18.70;95.00;;;;;;5053273;28;20448;-66
2020/12/16 11:48:58;;;;;;;21.83;20.73;;;18.60;94.00;;;;;;5053556;28;20809;-63
2020/12/16 11:51:25;;;;;;;21.57;20.57;;;19.00;94.40;;;;;;5053157;28;21026;-67
2020/12/16 11:53:51;;;;;;;21.43;20.43;;;19.00;94.00;;;;;;5053534;28;20452;-63
2020/12/16 11:56:18;;;;;;;22.03;20.73;;;19.50;92.60;;;;;;5053656;28;20440;-64
2020/12/16 11:58:44;;;;;;;21.63;20.40;;;19.90;91.00;;;;;;5053332;28;20494;-67
2020/12/16 12:01:11;;;;;;;21.73;20.73;;;19.60;90.00;;;;;;5053094;28;20448;-65
2020/12/16 12:03:38;;;;;;;23.53;22.40;;;19.40;89.80;;;;;;5053266;28;20464;-64
2020/12/16 12:06:08;;;;;;;21.37;20.40;;;19.30;90.20;;;;;;5053119;28;20436;-66
2020/12/16 12:08:34;;;;;;;22.10;21.10;;;19.20;89.80;;;;;;5052968;28;20936;-64
2020/12/16 12:11:00;;;;;;;22.87;21.57;;;18.80;90.40;;;;;;5052868;28;20440;-64
2020/12/16 12:13:27;;;;;;;22.97;21.77;;;18.70;90.80;;;;;;5052791;28;20479;-67
2020/12/16 12:15:53;;;;;;;23.43;22.33;;;19.00;90.70;;;;;;5052885;28;20447;-65
2020/12/16 12:18:19;;;;;;;20.90;20.00;;;19.30;90.10;;;;;;5052839;28;20451;-64
2020/12/16 12:20:46;;;;;;;21.73;20.73;;;19.20;89.60;;;;;;5052496;28;20459;-65
2020/12/16 12:23:13;;;;;;;22.33;21.30;;;19.30;89.10;;;;;;5052797;28;20890;-65
2020/12/16 12:25:39;;;;;;;22.83;21.73;;;19.50;87.70;;;;;;5053103;28;20444;-64
2020/12/16 12:28:05;;;;;;;20.53;19.67;;;19.50;86.40;;;;;;5052531;28;20471;-68
2020/12/16 12:30:31;;;;;;;21.90;20.93;;;19.30;86.10;;;;;;5053428;28;20455;-68
2020/12/16 12:32:58;;;;;;;21.40;20.40;;;19.20;86.60;;;;;;5053106;28;20487;-67
2020/12/16 12:35:24;;;;;;;21.37;20.37;;;18.60;88.70;;;;;;5053554;28;20524;-67
2020/12/16 12:37:51;;;;;;;20.90;19.60;;;18.70;90.10;;;;;;5053790;28;20865;-67
2020/12/16 12:40:17;;;;;;;20.93;19.90;;;18.80;89.40;;;;;;5053429;28;20530;-66